Time;durP1;ratioP1;P1;durP2;ratioP2;P2;SDS_P1;SDS_P2;PMS_P1;PMS_P2;Temp;Humidity;BMP_temperature;BMP_pressure;BME280_temperature;BME280_humidity;BME280_pressure;Samples;Min_cycle;Max_cycle;Signal;HPM_P1;HPM_P2
2021/08/30 00:01:35;;;;;;;15.27;9.68;;;16.70;99.90;;;;;;5094227;28;20118;-69
2021/08/30 00:04:00;;;;;;;15.98;10.43;;;16.60;99.90;;;;;;5096724;28;20097;-69
2021/08/30 00:06:26;;;;;;;17.58;9.82;;;16.70;99.90;;;;;;5095702;28;20048;-69
2021/08/30 00:08:52;;;;;;;16.40;9.95;;;16.70;99.90;;;;;;5095420;28;20036;-70
2021/08/30 00:11:17;;;;;;;11.88;8.88;;;16.70;99.90;;;;;;5093023;28;20044;-69
2021/08/30 00:13:47;;;;;;;16.15;9.68;;;16.70;99.90;;;;;;5094838;28;20109;-69
2021/08/30 00:16:13;;;;;;;19.42;10.10;;;16.70;99.90;;;;;;5095692;28;20481;-69
2021/08/30 00:18:38;;;;;;;15.07;10.50;;;16.60;99.90;;;;;;5093523;28;20130;-70
2021/08/30 00:21:04;;;;;;;15.48;10.27;;;16.60;99.90;;;;;;5092491;28;20500;-70
2021/08/30 00:23:30;;;;;;;13.75;9.82;;;16.70;99.90;;;;;;5093153;28;20040;-69
2021/08/30 00:25:56;;;;;;;15.98;10.20;;;16.70;99.90;;;;;;5095529;28;20040;-69
2021/08/30 00:28:21;;;;;;;17.45;10.40;;;16.70;99.90;;;;;;5092614;28;20155;-69
2021/08/30 00:30:47;;;;;;;16.48;10.68;;;16.70;99.90;;;;;;5097277;28;20035;-69
2021/08/30 00:33:13;;;;;;;15.68;10.88;;;16.70;99.90;;;;;;5095593;28;20406;-69
2021/08/30 00:35:38;;;;;;;13.73;10.27;;;16.70;99.90;;;;;;5094830;28;20032;-69
2021/08/30 00:38:05;;;;;;;19.70;10.60;;;16.70;99.90;;;;;;5098389;28;20396;-69
2021/08/30 00:40:31;;;;;;;14.82;10.45;;;16.70;99.90;;;;;;5098353;28;20047;-69
2021/08/30 00:42:58;;;;;;;13.63;10.32;;;16.70;99.90;;;;;;5128322;27;20047;-69
2021/08/30 00:45:23;;;;;;;14.60;10.68;;;16.70;99.90;;;;;;5095141;28;20492;-69
2021/08/30 00:47:52;;;;;;;15.57;10.23;;;16.70;99.90;;;;;;5096580;28;20042;-69
2021/08/30 00:50:18;;;;;;;18.65;11.02;;;16.70;99.90;;;;;;5093405;28;20036;-69
2021/08/30 00:52:44;;;;;;;14.02;10.70;;;16.70;99.90;;;;;;5094334;28;20447;-69
2021/08/30 00:55:11;;;;;;;21.20;10.27;;;16.70;99.90;;;;;;5090868;28;20028;-70
2021/08/30 00:57:37;;;;;;;17.77;10.02;;;16.70;99.90;;;;;;5095361;28;20110;-69
2021/08/30 01:00:05;;;;;;;20.08;11.80;;;16.70;99.90;;;;;;5095437;28;20562;-70
2021/08/30 01:02:32;;;;;;;16.48;11.10;;;16.70;99.90;;;;;;5100471;28;20040;-69
2021/08/30 01:04:58;;;;;;;21.15;11.52;;;16.70;99.90;;;;;;5095999;27;20124;-69
2021/08/30 01:07:42;;;;;;;16.00;10.35;;;16.70;99.90;;;;;;5123499;27;20127;-69
2021/08/30 01:10:18;;;;;;;18.17;12.63;;;16.70;99.90;;;;;;5093900;28;20040;-70
2021/08/30 01:12:51;;;;;;;16.52;11.93;;;16.80;99.90;;;;;;5095836;28;20031;-69
2021/08/30 01:15:24;;;;;;;15.13;10.85;;;16.80;99.90;;;;;;5094505;28;20043;-69
2021/08/30 01:17:51;;;;;;;14.15;11.20;;;16.80;99.90;;;;;;5095190;28;20028;-69
2021/08/30 01:20:53;;;;;;;20.38;11.75;;;16.80;99.90;;;;;;5093740;28;20085;-69
2021/08/30 01:23:22;;;;;;;21.05;11.43;;;16.70;99.90;;;;;;5083130;28;20048;-69
2021/08/30 01:25:48;;;;;;;21.60;13.25;;;16.80;99.90;;;;;;5096677;28;20040;-69
2021/08/30 01:28:14;;;;;;;16.40;11.55;;;16.80;99.90;;;;;;5096734;28;20036;-69
2021/08/30 01:30:41;;;;;;;21.05;12.90;;;16.70;99.90;;;;;;5125986;27;20046;-69
2021/08/30 01:33:07;;;;;;;17.65;11.57;;;16.80;99.90;;;;;;5097102;28;20058;-70
2021/08/30 01:35:34;;;;;;;19.23;12.35;;;16.80;99.90;;;;;;5094770;28;20040;-69
2021/08/30 01:38:03;;;;;;;26.90;12.50;;;16.80;99.90;;;;;;5098720;28;20116;-69
2021/08/30 01:40:30;;;;;;;19.50;12.90;;;16.80;99.90;;;;;;5098500;28;20048;-69
2021/08/30 01:42:59;;;;;;;23.85;13.65;;;16.80;99.90;;;;;;5097793;27;20040;-69
2021/08/30 01:45:27;;;;;;;20.98;13.13;;;16.80;99.90;;;;;;5097222;28;20040;-69
2021/08/30 01:47:55;;;;;;;18.35;11.85;;;16.80;99.90;;;;;;5098180;28;20040;-69
2021/08/30 01:50:23;;;;;;;17.02;12.00;;;16.80;99.90;;;;;;5101892;27;20036;-69
2021/08/30 01:52:50;;;;;;;20.45;12.70;;;16.80;99.90;;;;;;5098259;28;20431;-69
2021/08/30 01:55:35;;;;;;;23.73;13.00;;;16.80;99.90;;;;;;5099486;28;20039;-69
2021/08/30 02:00:43;;;;;;;20.55;13.07;;;16.80;99.90;;;;;;5097338;28;20056;-69
2021/08/30 02:03:19;;;;;;;18.83;13.15;;;16.80;99.90;;;;;;5097794;28;20036;-69
2021/08/30 02:05:53;;;;;;;25.75;14.70;;;16.80;99.90;;;;;;5098481;28;20133;-69
2021/08/30 02:08:22;;;;;;;26.70;12.63;;;16.80;99.90;;;;;;5097894;28;20598;-69
2021/08/30 02:10:50;;;;;;;24.92;12.82;;;16.70;99.90;;;;;;5127953;27;20040;-69
2021/08/30 02:13:17;;;;;;;24.25;13.90;;;16.70;99.90;;;;;;5096342;28;20039;-69
2021/08/30 02:15:44;;;;;;;23.00;13.27;;;16.70;99.90;;;;;;5098816;28;20036;-69
2021/08/30 02:18:35;;;;;;;24.63;14.18;;;16.70;99.90;;;;;;5096056;28;20032;-70
2021/08/30 02:21:14;;;;;;;22.13;13.70;;;16.70;99.90;;;;;;5096846;28;20568;-69
2021/08/30 02:23:52;;;;;;;28.38;14.65;;;16.70;99.90;;;;;;5108992;27;20043;-70
2021/08/30 02:26:30;;;;;;;27.92;13.95;;;16.80;99.90;;;;;;5095530;28;20900;-70
2021/08/30 02:28:58;;;;;;;29.35;13.77;;;16.70;99.90;;;;;;5107833;27;20035;-69
2021/08/30 02:31:25;;;;;;;21.80;13.43;;;16.80;99.90;;;;;;5103557;28;20055;-70
2021/08/30 02:33:51;;;;;;;24.38;14.95;;;16.80;99.90;;;;;;5105773;28;20043;-70
2021/08/30 02:36:19;;;;;;;24.20;13.93;;;16.80;99.90;;;;;;5101410;28;20040;-69
2021/08/30 02:38:46;;;;;;;20.80;13.65;;;16.80;99.90;;;;;;5100853;28;20040;-69
2021/08/30 02:41:13;;;;;;;28.05;14.32;;;16.80;99.90;;;;;;5100718;28;20077;-69
2021/08/30 02:43:39;;;;;;;30.13;14.13;;;16.80;99.90;;;;;;5099608;28;20127;-69
2021/08/30 02:46:05;;;;;;;27.23;14.07;;;16.80;99.90;;;;;;5105613;28;20111;-69
2021/08/30 02:48:32;;;;;;;22.90;13.93;;;16.70;99.90;;;;;;5118072;27;20048;-69
2021/08/30 02:50:58;;;;;;;26.48;14.73;;;16.80;99.90;;;;;;5105235;28;20135;-69
2021/08/30 02:53:25;;;;;;;25.33;13.80;;;16.70;99.90;;;;;;5133549;27;20175;-69
2021/08/30 02:55:52;;;;;;;26.05;14.23;;;16.70;99.90;;;;;;5102187;28;20040;-69
2021/08/30 02:58:18;;;;;;;21.20;12.98;;;16.70;99.90;;;;;;5103146;28;20071;-69
2021/08/30 03:00:45;;;;;;;27.75;14.75;;;16.70;99.90;;;;;;5104944;28;20097;-69
2021/08/30 03:03:12;;;;;;;30.05;13.45;;;16.70;99.90;;;;;;5103963;28;20039;-69
2021/08/30 03:05:40;;;;;;;26.25;14.00;;;16.60;99.90;;;;;;5102783;28;20036;-70
2021/08/30 03:08:06;;;;;;;31.08;15.27;;;16.60;99.90;;;;;;5105987;28;20119;-69
2021/08/30 03:10:32;;;;;;;27.75;14.23;;;16.70;99.90;;;;;;5100089;28;20533;-69
2021/08/30 03:13:02;;;;;;;26.73;15.52;;;16.60;99.90;;;;;;5107064;28;20089;-69
2021/08/30 03:15:29;;;;;;;29.63;16.02;;;16.60;99.90;;;;;;5101434;28;20109;-69
2021/08/30 03:17:56;;;;;;;23.63;14.45;;;16.70;99.90;;;;;;5138707;27;20098;-69
2021/08/30 03:20:25;;;;;;;24.95;14.40;;;16.60;99.90;;;;;;5138476;27;20124;-69
2021/08/30 03:22:51;;;;;;;23.88;13.45;;;16.60;99.90;;;;;;5105063;28;20074;-70
2021/08/30 03:25:19;;;;;;;27.77;14.85;;;16.60;99.90;;;;;;5134841;27;20028;-70
2021/08/30 03:27:46;;;;;;;29.98;17.02;;;16.60;99.90;;;;;;5104927;27;20028;-69
2021/08/30 03:30:14;;;;;;;25.35;13.68;;;16.60;99.90;;;;;;5133602;27;20053;-69
2021/08/30 03:32:42;;;;;;;26.90;15.35;;;16.60;99.90;;;;;;5103261;28;20508;-70
2021/08/30 03:35:09;;;;;;;26.77;15.30;;;16.60;99.90;;;;;;5117610;27;20055;-70
2021/08/30 03:37:35;;;;;;;24.17;13.95;;;16.60;99.90;;;;;;5100405;28;20036;-69
2021/08/30 03:40:02;;;;;;;27.25;14.18;;;16.60;99.90;;;;;;5101585;28;20031;-69
2021/08/30 03:42:29;;;;;;;30.45;16.42;;;16.70;99.90;;;;;;5102699;27;20513;-70
2021/08/30 03:44:54;;;;;;;29.50;15.15;;;16.70;99.90;;;;;;5102377;28;20490;-69
2021/08/30 03:47:20;;;;;;;27.65;15.50;;;16.60;99.90;;;;;;5106278;28;20054;-69
2021/08/30 03:49:48;;;;;;;27.23;14.82;;;16.60;99.90;;;;;;5101895;28;20040;-69
2021/08/30 03:52:15;;;;;;;26.20;14.15;;;16.60;99.90;;;;;;5103066;28;20079;-69
2021/08/30 03:54:40;;;;;;;23.02;13.95;;;16.60;99.90;;;;;;5133710;27;20148;-70
2021/08/30 03:57:06;;;;;;;27.23;14.70;;;16.60;99.90;;;;;;5102304;28;20696;-70
2021/08/30 03:59:35;;;;;;;32.75;16.00;;;16.60;99.90;;;;;;5100267;28;20512;-70
2021/08/30 04:02:02;;;;;;;24.25;15.25;;;16.60;99.90;;;;;;5104639;28;20043;-69
2021/08/30 04:04:28;;;;;;;29.52;15.55;;;16.50;99.90;;;;;;5106095;28;20031;-70
2021/08/30 04:06:55;;;;;;;30.73;16.27;;;16.60;99.90;;;;;;5106158;28;20039;-70
2021/08/30 04:09:22;;;;;;;27.70;15.68;;;16.50;99.90;;;;;;5101691;28;20074;-70
2021/08/30 04:11:48;;;;;;;32.15;15.68;;;16.50;99.90;;;;;;5099767;28;20040;-70
2021/08/30 04:14:15;;;;;;;23.75;14.40;;;16.50;99.90;;;;;;5096904;28;20696;-70
2021/08/30 04:16:42;;;;;;;30.45;15.23;;;16.50;99.90;;;;;;5104945;28;20118;-70
2021/08/30 04:19:07;;;;;;;24.60;15.07;;;16.50;99.90;;;;;;5123606;27;20039;-69
2021/08/30 04:21:33;;;;;;;31.52;17.00;;;16.50;99.90;;;;;;5136369;27;20400;-69
2021/08/30 04:23:59;;;;;;;31.33;15.85;;;16.50;99.90;;;;;;5101473;28;20092;-69
2021/08/30 04:26:24;;;;;;;36.83;17.85;;;16.50;99.90;;;;;;5103628;28;20085;-69
2021/08/30 04:28:50;;;;;;;32.30;17.98;;;16.60;99.90;;;;;;5103232;28;20036;-69
2021/08/30 04:31:16;;;;;;;33.58;16.70;;;16.60;99.90;;;;;;5102513;28;20097;-69
2021/08/30 04:33:41;;;;;;;42.53;17.50;;;16.60;99.90;;;;;;5103290;28;20127;-69
2021/08/30 04:36:07;;;;;;;35.45;17.88;;;16.60;99.90;;;;;;5100417;28;20067;-69
2021/08/30 04:38:33;;;;;;;34.45;16.83;;;16.60;99.90;;;;;;5098780;28;20111;-69
2021/08/30 04:40:59;;;;;;;33.65;17.13;;;16.70;99.90;;;;;;5100658;28;20131;-69
2021/08/30 04:43:25;;;;;;;28.50;17.98;;;16.70;99.90;;;;;;5102992;27;20661;-69
2021/08/30 04:45:50;;;;;;;33.13;17.92;;;16.70;99.90;;;;;;5102491;28;20060;-70
2021/08/30 04:48:16;;;;;;;31.67;19.00;;;16.70;99.90;;;;;;5103972;28;20111;-70
2021/08/30 04:50:42;;;;;;;34.55;18.98;;;16.80;99.90;;;;;;5101732;28;20039;-69
2021/08/30 04:53:07;;;;;;;39.00;18.25;;;16.70;99.90;;;;;;5105205;28;20051;-69
2021/08/30 04:55:35;;;;;;;38.10;19.02;;;16.80;99.90;;;;;;5099334;28;20042;-69
2021/08/30 04:58:03;;;;;;;32.03;18.60;;;16.80;99.90;;;;;;5097802;28;20398;-69
2021/08/30 05:00:29;;;;;;;36.60;18.85;;;16.80;99.90;;;;;;5101557;28;20050;-69
2021/08/30 05:02:54;;;;;;;34.85;19.33;;;16.80;99.90;;;;;;5095900;28;20453;-69
2021/08/30 05:05:20;;;;;;;33.25;16.83;;;16.80;99.90;;;;;;5101208;28;20032;-69
2021/08/30 05:07:45;;;;;;;30.67;17.90;;;17.10;99.90;;;;;;5120589;27;20047;-70
2021/08/30 05:10:13;;;;;;;32.53;17.00;;;16.90;99.90;;;;;;5098788;28;20142;-70
2021/08/30 05:12:39;;;;;;;22.95;16.52;;;16.90;99.90;;;;;;5130708;27;20147;-70
2021/08/30 05:15:05;;;;;;;34.72;16.70;;;16.90;99.90;;;;;;5102675;28;20515;-70
2021/08/30 05:17:30;;;;;;;28.63;15.80;;;16.90;99.90;;;;;;5105699;28;20039;-70
2021/08/30 05:19:57;;;;;;;32.17;17.05;;;17.00;99.90;;;;;;5102445;28;20479;-69
2021/08/30 05:22:23;;;;;;;33.42;18.50;;;17.00;99.90;;;;;;5098106;28;20032;-69
2021/08/30 05:24:48;;;;;;;31.85;15.93;;;17.00;99.90;;;;;;5099166;28;20044;-69
2021/08/30 05:27:14;;;;;;;33.38;17.15;;;17.00;99.90;;;;;;5103192;28;20036;-69
2021/08/30 05:29:40;;;;;;;29.67;17.13;;;17.00;99.90;;;;;;5097102;28;20119;-69
2021/08/30 05:32:06;;;;;;;31.77;16.75;;;17.10;99.90;;;;;;5097381;28;20047;-69
2021/08/30 05:34:31;;;;;;;27.42;15.50;;;17.10;99.90;;;;;;5097815;28;20089;-69
2021/08/30 05:36:57;;;;;;;29.42;15.50;;;17.10;99.90;;;;;;5097200;28;20040;-69
2021/08/30 05:39:23;;;;;;;31.40;15.00;;;17.20;99.90;;;;;;5099471;28;20480;-70
2021/08/30 05:41:48;;;;;;;32.25;17.13;;;17.10;99.90;;;;;;5100685;28;20040;-69
2021/08/30 05:44:14;;;;;;;26.15;14.25;;;17.20;99.90;;;;;;5101496;28;20038;-70
2021/08/30 05:46:39;;;;;;;31.83;15.10;;;17.20;99.90;;;;;;5103138;28;20405;-69
2021/08/30 05:49:05;;;;;;;29.80;16.52;;;17.20;99.90;;;;;;5103007;28;20033;-70
2021/08/30 05:51:31;;;;;;;25.73;14.95;;;17.20;99.90;;;;;;5098557;28;20486;-70
2021/08/30 05:53:56;;;;;;;35.00;15.15;;;17.20;99.90;;;;;;5100703;28;20040;-69
2021/08/30 05:56:23;;;;;;;27.35;15.48;;;17.30;99.90;;;;;;5132391;27;20043;-70
2021/08/30 05:58:48;;;;;;;24.25;14.77;;;17.30;99.90;;;;;;5102413;28;20048;-69
2021/08/30 06:01:14;;;;;;;26.02;15.80;;;17.30;99.90;;;;;;5100284;28;20093;-68
2021/08/30 06:03:40;;;;;;;27.90;14.68;;;17.30;99.90;;;;;;5133263;27;20036;-69
2021/08/30 06:06:06;;;;;;;26.30;14.98;;;17.30;99.90;;;;;;5099886;28;20612;-69
2021/08/30 06:08:31;;;;;;;23.23;14.63;;;17.40;99.90;;;;;;5101163;28;20042;-70
2021/08/30 06:11:11;;;;;;;26.52;15.38;;;17.40;99.90;;;;;;5098693;28;20043;-70
2021/08/30 06:13:37;;;;;;;28.30;14.98;;;17.40;99.90;;;;;;5097743;28;20405;-70
2021/08/30 06:16:02;;;;;;;28.58;15.18;;;17.40;99.90;;;;;;5128323;27;20040;-69
2021/08/30 06:18:28;;;;;;;24.00;14.95;;;17.40;99.90;;;;;;5096006;28;20043;-69
2021/08/30 06:20:53;;;;;;;26.00;14.65;;;17.40;99.90;;;;;;5096226;28;20052;-69
2021/08/30 06:23:19;;;;;;;26.02;15.15;;;17.40;99.90;;;;;;5133981;27;20538;-69
2021/08/30 06:25:45;;;;;;;29.80;14.52;;;17.40;99.90;;;;;;5108828;28;20109;-69
2021/08/30 06:28:12;;;;;;;22.88;13.75;;;17.50;99.90;;;;;;5093287;28;20063;-69
2021/08/30 06:30:38;;;;;;;21.92;13.82;;;17.50;99.90;;;;;;5104751;28;20054;-69
2021/08/30 06:33:03;;;;;;;19.98;13.60;;;17.50;99.90;;;;;;5105085;28;20040;-70
2021/08/30 06:35:29;;;;;;;25.60;13.07;;;17.50;99.90;;;;;;5105725;28;20397;-70
2021/08/30 06:37:55;;;;;;;18.00;12.68;;;17.60;99.90;;;;;;5098559;28;20031;-70
2021/08/30 06:40:23;;;;;;;24.00;12.63;;;17.70;99.90;;;;;;5103664;28;20089;-70
2021/08/30 06:42:50;;;;;;;20.75;12.20;;;17.70;99.90;;;;;;5098159;28;20394;-70
2021/08/30 06:45:16;;;;;;;16.67;12.40;;;17.80;99.90;;;;;;5098483;28;20050;-70
2021/08/30 06:47:42;;;;;;;15.82;11.13;;;17.90;99.90;;;;;;5103325;28;20043;-70
2021/08/30 06:50:09;;;;;;;18.40;11.85;;;18.10;99.90;;;;;;5106244;28;20473;-70
2021/08/30 06:52:34;;;;;;;14.57;11.23;;;18.10;99.90;;;;;;5128532;27;20516;-70
2021/08/30 06:55:01;;;;;;;20.60;12.20;;;18.20;99.90;;;;;;5101713;28;20036;-70
2021/08/30 06:57:31;;;;;;;15.90;10.88;;;18.40;99.90;;;;;;5099349;27;20863;-70
2021/08/30 06:59:56;;;;;;;14.85;11.48;;;18.40;99.90;;;;;;5101463;28;20759;-70
2021/08/30 07:02:23;;;;;;;15.00;11.15;;;18.40;99.90;;;;;;5114337;27;20047;-70
2021/08/30 07:04:48;;;;;;;17.85;10.85;;;18.40;99.90;;;;;;5100303;28;20036;-70
2021/08/30 07:07:14;;;;;;;14.38;9.95;;;18.50;99.90;;;;;;5096988;28;20044;-70
2021/08/30 07:09:39;;;;;;;16.92;11.00;;;18.60;99.90;;;;;;5097810;28;20036;-70
2021/08/30 07:12:05;;;;;;;15.02;10.35;;;18.80;99.90;;;;;;5098552;28;20044;-70
2021/08/30 07:14:31;;;;;;;17.08;10.52;;;18.80;99.90;;;;;;5101109;28;20048;-70
2021/08/30 07:16:57;;;;;;;14.52;9.32;;;19.00;99.90;;;;;;5127892;27;20120;-70
2021/08/30 07:19:22;;;;;;;13.35;10.43;;;19.10;99.90;;;;;;5099140;28;20071;-70
2021/08/30 07:21:48;;;;;;;17.65;10.52;;;19.30;99.90;;;;;;5101317;28;20042;-69
2021/08/30 07:24:14;;;;;;;12.52;9.63;;;19.40;99.90;;;;;;5100621;28;20032;-70
2021/08/30 07:26:39;;;;;;;21.67;10.40;;;19.60;99.90;;;;;;5099421;28;20027;-70
2021/08/30 07:29:05;;;;;;;16.60;9.45;;;19.80;99.90;;;;;;5102708;28;20556;-70
2021/08/30 07:31:30;;;;;;;14.52;9.45;;;19.90;99.90;;;;;;5102057;28;20508;-70
2021/08/30 07:33:56;;;;;;;14.32;9.18;;;20.10;99.90;;;;;;5104057;28;20120;-70
2021/08/30 07:36:22;;;;;;;14.80;8.82;;;20.30;99.90;;;;;;5099465;28;20039;-70
2021/08/30 07:38:48;;;;;;;13.43;9.40;;;20.50;99.90;;;;;;5096971;28;20070;-70
2021/08/30 07:41:14;;;;;;;12.63;8.82;;;20.60;99.90;;;;;;5102771;28;20043;-70
2021/08/30 07:43:39;;;;;;;12.77;8.93;;;20.60;99.90;;;;;;5100295;27;20112;-70
2021/08/30 07:46:05;;;;;;;13.68;8.68;;;20.60;99.90;;;;;;5101658;28;20047;-70
2021/08/30 07:48:31;;;;;;;11.52;8.93;;;20.60;99.90;;;;;;5098785;28;20078;-70
2021/08/30 07:50:57;;;;;;;11.38;9.15;;;20.70;99.90;;;;;;5098425;28;20051;-70
2021/08/30 07:53:26;;;;;;;13.95;7.75;;;20.70;99.90;;;;;;5101527;28;20197;-70
2021/08/30 07:55:53;;;;;;;9.57;8.00;;;20.80;99.90;;;;;;5096961;28;20067;-70
2021/08/30 07:58:20;;;;;;;9.48;7.95;;;21.00;99.90;;;;;;5095044;28;20027;-70
2021/08/30 08:00:45;;;;;;;14.27;7.63;;;21.00;99.90;;;;;;5093846;28;20040;-70
2021/08/30 08:03:11;;;;;;;12.07;7.95;;;21.20;99.90;;;;;;5128578;27;20051;-70
2021/08/30 08:05:36;;;;;;;11.75;7.88;;;21.30;99.90;;;;;;5093424;28;20038;-70
2021/08/30 08:08:04;;;;;;;13.85;7.57;;;21.40;99.90;;;;;;5093065;28;20054;-70
2021/08/30 08:10:30;;;;;;;12.90;7.90;;;21.50;99.90;;;;;;5091562;28;20047;-70
2021/08/30 08:12:56;;;;;;;9.15;7.05;;;21.50;99.90;;;;;;5093320;28;20044;-70
2021/08/30 08:15:22;;;;;;;12.55;7.43;;;21.40;99.90;;;;;;5098936;28;20032;-70
2021/08/30 08:17:48;;;;;;;12.95;7.85;;;21.30;99.90;;;;;;5095461;27;20062;-70
2021/08/30 08:20:14;;;;;;;9.38;7.22;;;21.50;99.90;;;;;;5095438;28;20031;-70
2021/08/30 08:22:41;;;;;;;8.70;6.72;;;21.60;99.90;;;;;;5092318;28;20398;-69
2021/08/30 08:25:07;;;;;;;11.80;6.70;;;21.80;99.90;;;;;;5097580;28;20032;-70
2021/08/30 08:27:34;;;;;;;8.05;6.07;;;21.90;99.90;;;;;;5093301;28;20036;-70
2021/08/30 08:30:00;;;;;;;10.07;5.78;;;22.20;99.90;;;;;;5095120;28;20119;-70
2021/08/30 08:32:26;;;;;;;12.70;6.45;;;22.20;99.90;;;;;;5095433;28;20107;-70
2021/08/30 08:34:51;;;;;;;8.30;6.28;;;22.40;99.90;;;;;;5109425;27;20082;-70
2021/08/30 08:37:17;;;;;;;7.20;5.22;;;22.40;99.90;;;;;;5092151;28;20062;-70
2021/08/30 08:39:43;;;;;;;7.72;5.97;;;22.50;99.90;;;;;;5094821;28;20592;-70
2021/08/30 08:42:09;;;;;;;8.98;5.85;;;22.70;99.90;;;;;;5093826;28;20481;-70
2021/08/30 08:44:36;;;;;;;7.53;5.35;;;22.80;99.90;;;;;;5096218;28;20036;-70
2021/08/30 08:47:02;;;;;;;6.78;5.22;;;23.00;99.90;;;;;;5094518;28;20091;-70
2021/08/30 08:49:27;;;;;;;5.93;5.32;;;23.20;99.90;;;;;;5091205;28;20470;-70
2021/08/30 08:51:53;;;;;;;5.88;5.20;;;23.10;99.90;;;;;;5093715;28;20036;-70
2021/08/30 08:54:19;;;;;;;6.32;5.20;;;22.90;99.90;;;;;;5094390;28;20032;-70
2021/08/30 08:56:44;;;;;;;8.27;5.97;;;22.60;99.90;;;;;;5090418;28;20066;-69
2021/08/30 08:59:10;;;;;;;8.68;5.18;;;22.30;99.90;;;;;;5093106;28;20054;-70
2021/08/30 09:01:37;;;;;;;9.27;5.65;;;22.20;99.90;;;;;;5093001;28;20100;-70
2021/08/30 09:04:04;;;;;;;12.00;5.75;;;21.90;99.90;;;;;;5092735;28;20040;-69
2021/08/30 09:06:38;;;;;;;8.00;5.40;;;21.80;99.90;;;;;;5095218;28;20081;-70
2021/08/30 09:09:16;;;;;;;6.97;5.28;;;21.70;99.90;;;;;;5093456;28;20409;-70
2021/08/30 09:11:44;;;;;;;7.05;4.80;;;21.60;99.90;;;;;;5092858;28;20063;-69
2021/08/30 09:14:24;;;;;;;6.60;5.28;;;21.60;99.90;;;;;;5092549;28;20061;-69
2021/08/30 09:17:05;;;;;;;9.27;5.07;;;21.80;99.90;;;;;;5100315;27;20047;-69
2021/08/30 09:19:31;;;;;;;5.53;5.03;;;22.10;99.90;;;;;;5098193;28;20031;-69
2021/08/30 09:21:57;;;;;;;5.20;4.70;;;22.20;99.90;;;;;;5095188;28;20086;-69
2021/08/30 09:24:24;;;;;;;6.15;4.63;;;22.30;99.90;;;;;;5096069;28;20071;-69
2021/08/30 09:26:54;;;;;;;7.13;4.82;;;22.40;99.90;;;;;;5093156;28;20044;-69
2021/08/30 09:29:23;;;;;;;5.25;4.68;;;22.60;99.90;;;;;;5091806;28;20031;-69
2021/08/30 09:32:06;;;;;;;4.53;4.10;;;22.60;99.90;;;;;;5095262;28;20047;-69
2021/08/30 09:34:44;;;;;;;7.97;4.85;;;22.70;99.90;;;;;;5092369;28;21016;-69
2021/08/30 09:37:18;;;;;;;5.93;4.35;;;22.80;99.90;;;;;;5094715;28;20046;-69
2021/08/30 09:39:49;;;;;;;6.20;4.68;;;22.60;99.90;;;;;;5093739;28;20082;-69
2021/08/30 09:42:16;;;;;;;6.80;4.50;;;22.50;99.90;;;;;;5093684;28;20440;-69
2021/08/30 09:44:41;;;;;;;7.40;4.13;;;22.40;99.90;;;;;;5125675;27;20497;-69
2021/08/30 09:47:13;;;;;;;6.10;4.88;;;22.40;99.90;;;;;;5090454;28;20070;-69
2021/08/30 09:49:40;;;;;;;4.82;3.78;;;22.40;99.90;;;;;;5090664;28;20377;-69
2021/08/30 09:52:06;;;;;;;7.05;4.43;;;22.20;99.90;;;;;;5093572;28;20083;-69
2021/08/30 09:54:34;;;;;;;4.65;4.15;;;22.10;99.90;;;;;;5092865;28;20047;-69
2021/08/30 09:57:00;;;;;;;4.45;3.53;;;22.10;99.90;;;;;;5123832;27;20068;-69
2021/08/30 09:59:28;;;;;;;4.75;4.22;;;22.20;99.90;;;;;;5098391;28;20135;-69
2021/08/30 10:01:54;;;;;;;4.45;4.05;;;22.30;99.90;;;;;;5092533;28;21146;-69
2021/08/30 10:04:21;;;;;;;11.00;3.97;;;22.30;99.90;;;;;;5095946;28;20110;-69
2021/08/30 10:06:49;;;;;;;5.00;4.10;;;22.40;99.90;;;;;;5090814;28;20134;-69
2021/08/30 10:09:16;;;;;;;6.20;3.78;;;22.50;99.90;;;;;;5094422;28;20043;-69
2021/08/30 10:11:44;;;;;;;5.65;3.97;;;22.60;99.90;;;;;;5095880;28;20050;-69
2021/08/30 10:14:18;;;;;;;3.75;3.33;;;22.50;99.90;;;;;;5092760;28;20120;-69
2021/08/30 10:16:45;;;;;;;5.27;3.83;;;22.40;99.90;;;;;;5099443;28;20032;-69
2021/08/30 10:19:11;;;;;;;3.78;3.42;;;22.20;99.90;;;;;;5095660;28;20308;-68
2021/08/30 10:21:45;;;;;;;5.28;4.05;;;22.20;99.90;;;;;;5107328;27;20739;-69
2021/08/30 10:24:15;;;;;;;4.22;3.35;;;22.20;99.90;;;;;;5092111;28;20035;-69
2021/08/30 10:26:42;;;;;;;5.57;3.35;;;22.20;99.90;;;;;;5091567;27;20053;-69
2021/08/30 10:29:11;;;;;;;5.15;3.63;;;22.40;99.90;;;;;;5095905;28;20127;-69
2021/08/30 10:31:49;;;;;;;4.57;3.50;;;22.50;99.90;;;;;;5093945;28;20044;-69
2021/08/30 10:34:26;;;;;;;3.35;3.05;;;22.50;99.90;;;;;;5095222;28;20043;-69
2021/08/30 10:36:52;;;;;;;4.22;3.20;;;22.40;99.90;;;;;;5096348;28;20376;-69
2021/08/30 10:39:19;;;;;;;2.85;2.55;;;22.10;99.90;;;;;;5097776;28;20051;-69
2021/08/30 10:41:45;;;;;;;4.18;3.10;;;21.90;99.90;;;;;;5094402;28;20044;-68
2021/08/30 10:44:22;;;;;;;3.70;3.38;;;21.80;99.90;;;;;;5095633;28;20046;-69
2021/08/30 10:46:51;;;;;;;4.90;3.38;;;21.90;99.90;;;;;;5095990;28;20474;-69
2021/08/30 10:49:19;;;;;;;3.35;3.05;;;22.10;99.90;;;;;;5092848;28;20101;-68
2021/08/30 10:51:46;;;;;;;3.28;3.03;;;22.50;99.90;;;;;;5096234;28;20043;-69
2021/08/30 10:54:16;;;;;;;4.72;3.92;;;22.70;99.90;;;;;;5094171;28;20039;-69
2021/08/30 10:56:53;;;;;;;8.45;3.95;;;22.90;99.90;;;;;;5094495;28;20036;-69
2021/08/30 10:59:23;;;;;;;6.85;3.38;;;23.20;99.90;;;;;;5095485;27;20142;-69
2021/08/30 11:01:55;;;;;;;6.00;3.08;;;23.20;99.90;;;;;;5095007;28;20122;-69
2021/08/30 11:04:51;;;;;;;9.57;3.60;;;23.00;99.90;;;;;;5093010;28;20031;-69
2021/08/30 11:07:17;;;;;;;4.55;3.50;;;23.20;99.90;;;;;;5093004;28;20039;-69
2021/08/30 11:09:47;;;;;;;6.63;3.80;;;23.00;99.90;;;;;;5093730;28;20802;-69
2021/08/30 11:12:14;;;;;;;5.38;3.60;;;22.90;99.90;;;;;;5127122;27;20050;-69
2021/08/30 11:14:40;;;;;;;5.53;3.53;;;22.80;99.90;;;;;;5095258;28;20047;-69
2021/08/30 11:17:09;;;;;;;4.13;3.75;;;22.60;99.90;;;;;;5095947;28;20390;-69
2021/08/30 11:19:35;;;;;;;6.55;3.60;;;22.50;99.90;;;;;;5095510;28;20101;-69
2021/08/30 11:22:02;;;;;;;4.75;3.13;;;22.50;99.90;;;;;;5093972;28;20040;-68
2021/08/30 11:24:30;;;;;;;7.55;3.78;;;22.50;99.90;;;;;;5093763;27;20402;-69
2021/08/30 11:27:01;;;;;;;5.20;4.10;;;22.50;99.90;;;;;;5093946;28;20044;-69
2021/08/30 11:29:28;;;;;;;4.40;3.40;;;22.40;99.90;;;;;;5095628;28;20047;-69
2021/08/30 11:31:54;;;;;;;8.18;3.78;;;22.50;99.90;;;;;;5096224;28;20541;-69
2021/08/30 11:34:31;;;;;;;3.88;3.58;;;22.60;99.90;;;;;;5093475;28;20051;-69
2021/08/30 11:37:00;;;;;;;6.15;3.50;;;22.80;99.90;;;;;;5108867;27;20043;-69
2021/08/30 11:39:28;;;;;;;8.90;3.35;;;22.70;99.90;;;;;;5094995;28;20059;-69
2021/08/30 11:41:58;;;;;;;4.45;3.70;;;22.60;99.90;;;;;;5084715;28;20157;-69
2021/08/30 11:44:25;;;;;;;4.68;3.90;;;22.40;99.90;;;;;;5095902;28;20038;-69
2021/08/30 11:46:56;;;;;;;5.22;3.58;;;22.40;99.90;;;;;;5095230;28;20552;-69
2021/08/30 11:49:24;;;;;;;6.45;4.63;;;22.60;99.90;;;;;;5093636;28;20070;-69
2021/08/30 11:51:52;;;;;;;5.90;3.97;;;22.80;99.90;;;;;;5093125;28;20075;-68
2021/08/30 11:54:27;;;;;;;4.22;3.58;;;23.10;99.90;;;;;;5092736;28;20036;-69
2021/08/30 11:57:05;;;;;;;4.53;3.75;;;23.10;99.90;;;;;;5092878;27;20139;-69
2021/08/30 11:59:36;;;;;;;5.45;4.03;;;22.90;99.90;;;;;;5094409;28;20074;-69
2021/08/30 12:02:07;;;;;;;5.68;3.72;;;22.90;99.90;;;;;;5090396;28;20052;-69
2021/08/30 12:04:35;;;;;;;5.22;3.80;;;22.80;99.90;;;;;;5093103;28;20042;-69
2021/08/30 12:07:06;;;;;;;5.57;3.78;;;22.80;99.90;;;;;;5096660;28;20047;-69
2021/08/30 12:09:53;;;;;;;4.28;3.88;;;22.70;99.90;;;;;;5095881;28;20031;-69
2021/08/30 12:12:22;;;;;;;5.18;3.67;;;22.50;99.90;;;;;;5096163;28;20449;-69
2021/08/30 12:15:09;;;;;;;7.53;3.75;;;22.40;99.90;;;;;;5122753;27;20074;-69
2021/08/30 12:17:43;;;;;;;3.78;3.47;;;22.50;99.90;;;;;;5097198;28;20043;-68
2021/08/30 12:20:15;;;;;;;4.05;3.58;;;22.70;99.90;;;;;;5094423;28;20039;-68
2021/08/30 12:22:49;;;;;;;4.72;3.63;;;22.90;99.90;;;;;;5092916;28;20068;-69
2021/08/30 12:25:29;;;;;;;4.78;3.97;;;23.00;99.90;;;;;;5093696;28;20500;-69
2021/08/30 12:27:57;;;;;;;3.75;3.25;;;22.90;99.90;;;;;;5093967;28;20067;-69
2021/08/30 12:30:25;;;;;;;3.97;3.40;;;22.80;99.90;;;;;;5093659;28;20070;-69
2021/08/30 12:33:04;;;;;;;5.38;4.10;;;22.40;99.90;;;;;;5092838;28;20067;-69
2021/08/30 12:35:31;;;;;;;3.95;3.50;;;22.20;99.90;;;;;;5092364;28;20036;-69
2021/08/30 12:38:03;;;;;;;5.50;3.72;;;22.10;99.90;;;;;;5092482;28;20040;-69
2021/08/30 12:40:31;;;;;;;6.00;3.90;;;22.20;99.90;;;;;;5089856;28;20760;-69
2021/08/30 12:42:57;;;;;;;5.40;3.80;;;22.30;99.90;;;;;;5094153;28;20048;-69